sensor_id;sensor_type;location;lat;lon;timestamp;temperature;humidity
22235;DHT22;11286;45.596;5.284;2022-09-09T00:02:20;20.20;99.90
22235;DHT22;11286;45.596;5.284;2022-09-09T00:04:58;20.10;99.90
22235;DHT22;11286;45.596;5.284;2022-09-09T00:07:45;20.10;99.90
22235;DHT22;11286;45.596;5.284;2022-09-09T00:10:34;20.00;99.90
22235;DHT22;11286;45.596;5.284;2022-09-09T00:16:08;19.90;99.90
22235;DHT22;11286;45.596;5.284;2022-09-09T00:22:22;19.80;99.90
22235;DHT22;11286;45.596;5.284;2022-09-09T00:24:54;19.60;99.90
22235;DHT22;11286;45.596;5.284;2022-09-09T00:27:43;19.60;99.90
22235;DHT22;11286;45.596;5.284;2022-09-09T00:30:19;19.60;99.90
22235;DHT22;11286;45.596;5.284;2022-09-09T00:32:49;19.50;99.90
22235;DHT22;11286;45.596;5.284;2022-09-09T00:37:54;19.40;99.90
22235;DHT22;11286;45.596;5.284;2022-09-09T00:48:50;19.20;99.90
22235;DHT22;11286;45.596;5.284;2022-09-09T00:51:40;19.20;99.90
22235;DHT22;11286;45.596;5.284;2022-09-09T00:59:36;19.10;99.90
22235;DHT22;11286;45.596;5.284;2022-09-09T01:02:28;19.00;99.90
22235;DHT22;11286;45.596;5.284;2022-09-09T01:04:59;19.00;99.90
22235;DHT22;11286;45.596;5.284;2022-09-09T01:07:26;19.00;99.90
22235;DHT22;11286;45.596;5.284;2022-09-09T01:10:00;19.10;99.90
22235;DHT22;11286;45.596;5.284;2022-09-09T01:12:42;18.90;99.90
22235;DHT22;11286;45.596;5.284;2022-09-09T01:15:22;18.90;99.90
22235;DHT22;11286;45.596;5.284;2022-09-09T01:17:52;18.90;99.90
22235;DHT22;11286;45.596;5.284;2022-09-09T01:20:25;18.90;99.90
22235;DHT22;11286;45.596;5.284;2022-09-09T01:28:35;18.80;99.90
22235;DHT22;11286;45.596;5.284;2022-09-09T01:31:04;18.80;99.90
22235;DHT22;11286;45.596;5.284;2022-09-09T01:33:31;18.80;99.90
22235;DHT22;11286;45.596;5.284;2022-09-09T01:38:32;18.70;99.90
22235;DHT22;11286;45.596;5.284;2022-09-09T01:40:58;18.70;99.90
22235;DHT22;11286;45.596;5.284;2022-09-09T01:43:25;18.70;99.90
22235;DHT22;11286;45.596;5.284;2022-09-09T01:45:54;18.60;99.90
22235;DHT22;11286;45.596;5.284;2022-09-09T01:48:23;18.70;99.90
22235;DHT22;11286;45.596;5.284;2022-09-09T01:50:49;18.70;99.90
22235;DHT22;11286;45.596;5.284;2022-09-09T01:53:17;18.60;99.90
22235;DHT22;11286;45.596;5.284;2022-09-09T01:59:14;18.60;99.90
22235;DHT22;11286;45.596;5.284;2022-09-09T02:02:21;18.60;99.90
22235;DHT22;11286;45.596;5.284;2022-09-09T02:04:48;18.50;99.90
22235;DHT22;11286;45.596;5.284;2022-09-09T02:07:40;18.50;99.90
22235;DHT22;11286;45.596;5.284;2022-09-09T02:12:55;18.20;99.90
22235;DHT22;11286;45.596;5.284;2022-09-09T02:18:07;18.30;99.90
22235;DHT22;11286;45.596;5.284;2022-09-09T02:20:37;18.30;99.90
22235;DHT22;11286;45.596;5.284;2022-09-09T02:23:04;18.30;99.90
22235;DHT22;11286;45.596;5.284;2022-09-09T02:25:30;18.20;99.90
22235;DHT22;11286;45.596;5.284;2022-09-09T02:27:56;18.00;99.90
22235;DHT22;11286;45.596;5.284;2022-09-09T02:30:27;18.10;99.90
22235;DHT22;11286;45.596;5.284;2022-09-09T02:32:57;18.20;99.90
22235;DHT22;11286;45.596;5.284;2022-09-09T02:35:25;18.10;99.90
22235;DHT22;11286;45.596;5.284;2022-09-09T02:37:59;18.00;99.90
22235;DHT22;11286;45.596;5.284;2022-09-09T02:40:25;18.00;99.90
22235;DHT22;11286;45.596;5.284;2022-09-09T02:42:51;18.00;99.90
22235;DHT22;11286;45.596;5.284;2022-09-09T02:45:23;17.80;99.90
22235;DHT22;11286;45.596;5.284;2022-09-09T02:48:27;17.70;99.90
22235;DHT22;11286;45.596;5.284;2022-09-09T02:51:14;17.70;99.90
22235;DHT22;11286;45.596;5.284;2022-09-09T02:53:50;17.60;99.90
22235;DHT22;11286;45.596;5.284;2022-09-09T02:56:21;17.60;99.90
22235;DHT22;11286;45.596;5.284;2022-09-09T02:58:49;17.80;99.90
22235;DHT22;11286;45.596;5.284;2022-09-09T03:01:17;17.70;99.90
22235;DHT22;11286;45.596;5.284;2022-09-09T03:03:43;17.70;99.90
22235;DHT22;11286;45.596;5.284;2022-09-09T03:06:10;17.60;99.90
22235;DHT22;11286;45.596;5.284;2022-09-09T03:08:37;17.60;99.90
22235;DHT22;11286;45.596;5.284;2022-09-09T03:11:03;17.60;99.90
22235;DHT22;11286;45.596;5.284;2022-09-09T03:13:29;17.60;99.90
22235;DHT22;11286;45.596;5.284;2022-09-09T03:15:55;17.50;99.90
22235;DHT22;11286;45.596;5.284;2022-09-09T03:18:20;17.40;99.90
22235;DHT22;11286;45.596;5.284;2022-09-09T03:20:47;17.60;99.90
22235;DHT22;11286;45.596;5.284;2022-09-09T03:23:16;17.40;99.90
22235;DHT22;11286;45.596;5.284;2022-09-09T03:25:49;17.50;99.90
22235;DHT22;11286;45.596;5.284;2022-09-09T03:28:15;17.40;99.90
22235;DHT22;11286;45.596;5.284;2022-09-09T03:30:41;17.50;99.90
22235;DHT22;11286;45.596;5.284;2022-09-09T03:33:06;17.50;99.90
22235;DHT22;11286;45.596;5.284;2022-09-09T03:35:32;17.40;99.90
22235;DHT22;11286;45.596;5.284;2022-09-09T03:37:57;17.40;99.90
22235;DHT22;11286;45.596;5.284;2022-09-09T03:40:23;17.20;99.90
22235;DHT22;11286;45.596;5.284;2022-09-09T03:42:49;17.20;99.90
22235;DHT22;11286;45.596;5.284;2022-09-09T03:45:14;17.10;99.90
22235;DHT22;11286;45.596;5.284;2022-09-09T03:47:40;17.00;99.90
22235;DHT22;11286;45.596;5.284;2022-09-09T03:50:07;17.00;99.90
22235;DHT22;11286;45.596;5.284;2022-09-09T03:52:39;17.10;99.90
22235;DHT22;11286;45.596;5.284;2022-09-09T03:55:06;17.20;99.90
22235;DHT22;11286;45.596;5.284;2022-09-09T03:57:33;17.20;99.90
22235;DHT22;11286;45.596;5.284;2022-09-09T04:00:02;17.20;99.90
22235;DHT22;11286;45.596;5.284;2022-09-09T04:02:28;17.00;99.90
22235;DHT22;11286;45.596;5.284;2022-09-09T04:04:54;17.10;99.90
22235;DHT22;11286;45.596;5.284;2022-09-09T04:07:19;17.00;99.90
22235;DHT22;11286;45.596;5.284;2022-09-09T04:09:45;16.90;99.90
22235;DHT22;11286;45.596;5.284;2022-09-09T04:12:11;17.00;99.90
22235;DHT22;11286;45.596;5.284;2022-09-09T04:14:38;16.90;99.90
22235;DHT22;11286;45.596;5.284;2022-09-09T04:17:04;16.90;99.90
22235;DHT22;11286;45.596;5.284;2022-09-09T04:19:32;16.80;99.90
22235;DHT22;11286;45.596;5.284;2022-09-09T04:21:57;16.80;99.90
22235;DHT22;11286;45.596;5.284;2022-09-09T04:24:23;16.80;99.90
22235;DHT22;11286;45.596;5.284;2022-09-09T04:26:50;16.80;99.90
22235;DHT22;11286;45.596;5.284;2022-09-09T04:29:16;16.80;99.90
22235;DHT22;11286;45.596;5.284;2022-09-09T04:31:41;16.70;99.90
22235;DHT22;11286;45.596;5.284;2022-09-09T04:34:08;16.60;99.90
22235;DHT22;11286;45.596;5.284;2022-09-09T04:36:34;16.60;99.90
22235;DHT22;11286;45.596;5.284;2022-09-09T04:39:01;16.60;99.90
22235;DHT22;11286;45.596;5.284;2022-09-09T04:41:27;16.50;99.90
22235;DHT22;11286;45.596;5.284;2022-09-09T04:43:52;16.50;99.90
22235;DHT22;11286;45.596;5.284;2022-09-09T04:46:19;16.60;99.90
22235;DHT22;11286;45.596;5.284;2022-09-09T04:48:45;16.70;99.90
22235;DHT22;11286;45.596;5.284;2022-09-09T04:51:13;16.70;99.90
22235;DHT22;11286;45.596;5.284;2022-09-09T04:53:39;16.60;99.90
22235;DHT22;11286;45.596;5.284;2022-09-09T04:56:11;16.60;99.90
22235;DHT22;11286;45.596;5.284;2022-09-09T04:58:37;16.60;99.90
22235;DHT22;11286;45.596;5.284;2022-09-09T05:01:15;16.60;99.90
22235;DHT22;11286;45.596;5.284;2022-09-09T05:03:42;16.60;99.90
22235;DHT22;11286;45.596;5.284;2022-09-09T05:06:12;16.60;99.90
22235;DHT22;11286;45.596;5.284;2022-09-09T05:08:39;16.80;99.90
22235;DHT22;11286;45.596;5.284;2022-09-09T05:11:24;16.60;99.90
22235;DHT22;11286;45.596;5.284;2022-09-09T05:13:50;16.80;99.90
22235;DHT22;11286;45.596;5.284;2022-09-09T05:16:17;16.80;99.90
22235;DHT22;11286;45.596;5.284;2022-09-09T05:18:43;16.70;99.90
22235;DHT22;11286;45.596;5.284;2022-09-09T05:21:10;16.70;99.90
22235;DHT22;11286;45.596;5.284;2022-09-09T05:23:36;16.70;99.90
22235;DHT22;11286;45.596;5.284;2022-09-09T05:26:03;16.70;99.90
22235;DHT22;11286;45.596;5.284;2022-09-09T05:28:29;16.70;99.90
22235;DHT22;11286;45.596;5.284;2022-09-09T05:31:09;16.70;99.90
22235;DHT22;11286;45.596;5.284;2022-09-09T05:33:38;16.70;99.90
22235;DHT22;11286;45.596;5.284;2022-09-09T05:36:07;16.80;99.90
22235;DHT22;11286;45.596;5.284;2022-09-09T05:38:34;16.90;99.90
22235;DHT22;11286;45.596;5.284;2022-09-09T05:41:01;16.90;99.90
22235;DHT22;11286;45.596;5.284;2022-09-09T05:43:28;16.80;99.90
22235;DHT22;11286;45.596;5.284;2022-09-09T05:46:08;16.90;99.90
22235;DHT22;11286;45.596;5.284;2022-09-09T05:48:37;17.10;99.90
22235;DHT22;11286;45.596;5.284;2022-09-09T05:51:04;17.10;99.90
22235;DHT22;11286;45.596;5.284;2022-09-09T05:53:30;17.20;99.90
22235;DHT22;11286;45.596;5.284;2022-09-09T05:56:07;17.30;99.90
22235;DHT22;11286;45.596;5.284;2022-09-09T05:58:36;17.30;99.90
22235;DHT22;11286;45.596;5.284;2022-09-09T06:01:07;17.50;99.90
22235;DHT22;11286;45.596;5.284;2022-09-09T06:03:38;17.60;99.90
22235;DHT22;11286;45.596;5.284;2022-09-09T06:06:06;17.80;99.90
22235;DHT22;11286;45.596;5.284;2022-09-09T06:08:34;17.60;99.90
22235;DHT22;11286;45.596;5.284;2022-09-09T06:11:08;17.70;99.90
22235;DHT22;11286;45.596;5.284;2022-09-09T06:13:34;17.60;99.90
22235;DHT22;11286;45.596;5.284;2022-09-09T06:16:02;17.60;99.90
22235;DHT22;11286;45.596;5.284;2022-09-09T06:18:28;17.50;99.90
22235;DHT22;11286;45.596;5.284;2022-09-09T06:20:55;17.60;99.90
22235;DHT22;11286;45.596;5.284;2022-09-09T06:23:21;17.60;99.90
22235;DHT22;11286;45.596;5.284;2022-09-09T06:25:47;17.60;99.90
22235;DHT22;11286;45.596;5.284;2022-09-09T06:28:12;17.70;99.90
22235;DHT22;11286;45.596;5.284;2022-09-09T06:30:39;17.70;99.90
22235;DHT22;11286;45.596;5.284;2022-09-09T06:33:05;17.80;99.90
22235;DHT22;11286;45.596;5.284;2022-09-09T06:35:30;17.90;99.90
22235;DHT22;11286;45.596;5.284;2022-09-09T06:37:56;17.80;99.90
22235;DHT22;11286;45.596;5.284;2022-09-09T06:40:24;18.00;99.90
22235;DHT22;11286;45.596;5.284;2022-09-09T06:42:50;18.00;99.90
22235;DHT22;11286;45.596;5.284;2022-09-09T06:45:16;18.00;99.90
22235;DHT22;11286;45.596;5.284;2022-09-09T06:47:42;18.00;99.90
22235;DHT22;11286;45.596;5.284;2022-09-09T06:50:07;18.00;99.90
22235;DHT22;11286;45.596;5.284;2022-09-09T06:52:33;18.10;99.90
22235;DHT22;11286;45.596;5.284;2022-09-09T06:54:59;18.20;99.90
22235;DHT22;11286;45.596;5.284;2022-09-09T06:57:24;18.20;99.90
22235;DHT22;11286;45.596;5.284;2022-09-09T06:59:50;18.30;99.90
22235;DHT22;11286;45.596;5.284;2022-09-09T07:02:16;18.40;99.90
22235;DHT22;11286;45.596;5.284;2022-09-09T07:04:41;18.40;99.90
22235;DHT22;11286;45.596;5.284;2022-09-09T07:07:08;18.60;99.90
22235;DHT22;11286;45.596;5.284;2022-09-09T07:09:35;18.80;99.90
22235;DHT22;11286;45.596;5.284;2022-09-09T07:12:01;18.90;99.90
22235;DHT22;11286;45.596;5.284;2022-09-09T07:14:26;18.80;99.90
22235;DHT22;11286;45.596;5.284;2022-09-09T07:16:52;18.90;99.90
22235;DHT22;11286;45.596;5.284;2022-09-09T07:19:18;19.10;99.90
22235;DHT22;11286;45.596;5.284;2022-09-09T07:21:44;19.30;99.90
22235;DHT22;11286;45.596;5.284;2022-09-09T07:24:10;19.30;99.90
22235;DHT22;11286;45.596;5.284;2022-09-09T07:26:38;19.40;99.90
22235;DHT22;11286;45.596;5.284;2022-09-09T07:29:04;19.50;99.90
22235;DHT22;11286;45.596;5.284;2022-09-09T07:31:32;19.60;99.90
22235;DHT22;11286;45.596;5.284;2022-09-09T07:34:00;19.70;99.90
22235;DHT22;11286;45.596;5.284;2022-09-09T07:36:28;19.80;99.90
22235;DHT22;11286;45.596;5.284;2022-09-09T07:38:58;19.90;99.90
22235;DHT22;11286;45.596;5.284;2022-09-09T07:43:50;20.00;99.90
22235;DHT22;11286;45.596;5.284;2022-09-09T07:46:18;20.00;99.90
22235;DHT22;11286;45.596;5.284;2022-09-09T07:48:52;20.10;99.90
22235;DHT22;11286;45.596;5.284;2022-09-09T07:51:30;20.20;99.90
22235;DHT22;11286;45.596;5.284;2022-09-09T07:53:58;20.30;99.90
22235;DHT22;11286;45.596;5.284;2022-09-09T07:56:26;20.30;99.90
22235;DHT22;11286;45.596;5.284;2022-09-09T07:58:53;20.40;99.90
22235;DHT22;11286;45.596;5.284;2022-09-09T08:01:31;20.60;99.90
22235;DHT22;11286;45.596;5.284;2022-09-09T08:04:00;20.60;99.90
22235;DHT22;11286;45.596;5.284;2022-09-09T08:06:32;20.50;99.90
22235;DHT22;11286;45.596;5.284;2022-09-09T08:08:59;20.60;99.90
22235;DHT22;11286;45.596;5.284;2022-09-09T08:11:26;20.70;99.90
22235;DHT22;11286;45.596;5.284;2022-09-09T08:13:52;20.80;99.90
22235;DHT22;11286;45.596;5.284;2022-09-09T08:16:26;20.90;99.90
22235;DHT22;11286;45.596;5.284;2022-09-09T08:18:53;21.00;99.90
22235;DHT22;11286;45.596;5.284;2022-09-09T08:21:31;21.20;99.90
22235;DHT22;11286;45.596;5.284;2022-09-09T08:23:59;21.40;99.90
22235;DHT22;11286;45.596;5.284;2022-09-09T08:26:31;21.30;99.90
22235;DHT22;11286;45.596;5.284;2022-09-09T08:28:58;21.30;99.90
22235;DHT22;11286;45.596;5.284;2022-09-09T08:31:27;21.50;99.90
22235;DHT22;11286;45.596;5.284;2022-09-09T08:33:57;22.00;99.90
22235;DHT22;11286;45.596;5.284;2022-09-09T08:36:26;22.20;99.90
22235;DHT22;11286;45.596;5.284;2022-09-09T08:38:53;22.50;99.90
22235;DHT22;11286;45.596;5.284;2022-09-09T08:42:08;22.80;99.90
22235;DHT22;11286;45.596;5.284;2022-09-09T08:44:28;23.00;99.90
22235;DHT22;11286;45.596;5.284;2022-09-09T08:52:19;23.50;99.90
22235;DHT22;11286;45.596;5.284;2022-09-09T08:54:47;23.50;99.90
22235;DHT22;11286;45.596;5.284;2022-09-09T08:57:24;23.40;99.90
22235;DHT22;11286;45.596;5.284;2022-09-09T08:59:52;23.50;99.90
22235;DHT22;11286;45.596;5.284;2022-09-09T09:06:15;23.20;99.90
22235;DHT22;11286;45.596;5.284;2022-09-09T09:09:06;23.30;99.90
22235;DHT22;11286;45.596;5.284;2022-09-09T09:11:40;23.60;99.90
22235;DHT22;11286;45.596;5.284;2022-09-09T09:16:50;23.70;99.90
22235;DHT22;11286;45.596;5.284;2022-09-09T09:19:18;23.90;99.90
22235;DHT22;11286;45.596;5.284;2022-09-09T09:21:48;23.80;99.90
22235;DHT22;11286;45.596;5.284;2022-09-09T09:24:39;24.00;99.90
22235;DHT22;11286;45.596;5.284;2022-09-09T09:27:14;24.00;99.90
22235;DHT22;11286;45.596;5.284;2022-09-09T09:29:41;23.70;99.90
22235;DHT22;11286;45.596;5.284;2022-09-09T09:32:13;23.90;99.90
22235;DHT22;11286;45.596;5.284;2022-09-09T09:34:40;24.30;99.90
22235;DHT22;11286;45.596;5.284;2022-09-09T09:37:15;25.30;99.90
22235;DHT22;11286;45.596;5.284;2022-09-09T09:39:44;29.80;99.90
22235;DHT22;11286;45.596;5.284;2022-09-09T09:42:12;31.40;99.90
22235;DHT22;11286;45.596;5.284;2022-09-09T09:44:40;27.90;99.90
22235;DHT22;11286;45.596;5.284;2022-09-09T09:47:17;26.90;99.90
22235;DHT22;11286;45.596;5.284;2022-09-09T09:49:55;25.90;99.90
22235;DHT22;11286;45.596;5.284;2022-09-09T09:52:29;25.10;99.90
22235;DHT22;11286;45.596;5.284;2022-09-09T09:54:57;24.90;99.90
22235;DHT22;11286;45.596;5.284;2022-09-09T09:57:30;27.10;99.90
22235;DHT22;11286;45.596;5.284;2022-09-09T10:02:43;26.10;99.90
22235;DHT22;11286;45.596;5.284;2022-09-09T10:05:24;29.60;99.90
22235;DHT22;11286;45.596;5.284;2022-09-09T10:10:42;38.00;99.90
22235;DHT22;11286;45.596;5.284;2022-09-09T10:16:06;40.40;99.90
22235;DHT22;11286;45.596;5.284;2022-09-09T10:25:02;39.50;99.90
22235;DHT22;11286;45.596;5.284;2022-09-09T10:30:26;34.20;99.90
22235;DHT22;11286;45.596;5.284;2022-09-09T10:33:07;35.30;99.90
22235;DHT22;11286;45.596;5.284;2022-09-09T10:43:46;38.50;99.90
22235;DHT22;11286;45.596;5.284;2022-09-09T10:46:36;36.50;99.90
22235;DHT22;11286;45.596;5.284;2022-09-09T10:56:38;37.60;99.90
22235;DHT22;11286;45.596;5.284;2022-09-09T10:59:18;32.20;99.90
22235;DHT22;11286;45.596;5.284;2022-09-09T11:01:53;32.30;99.90
22235;DHT22;11286;45.596;5.284;2022-09-09T11:06:56;30.50;99.90
22235;DHT22;11286;45.596;5.284;2022-09-09T11:09:26;36.50;99.90
22235;DHT22;11286;45.596;5.284;2022-09-09T11:11:55;38.90;99.90
22235;DHT22;11286;45.596;5.284;2022-09-09T11:14:36;39.80;99.90
22235;DHT22;11286;45.596;5.284;2022-09-09T11:17:31;40.20;99.90
22235;DHT22;11286;45.596;5.284;2022-09-09T11:19:59;40.50;99.90
22235;DHT22;11286;45.596;5.284;2022-09-09T11:22:29;40.70;99.90
22235;DHT22;11286;45.596;5.284;2022-09-09T11:25:18;42.80;99.90
22235;DHT22;11286;45.596;5.284;2022-09-09T11:33:48;40.50;99.90
22235;DHT22;11286;45.596;5.284;2022-09-09T11:42:18;42.70;99.90
22235;DHT22;11286;45.596;5.284;2022-09-09T11:44:44;42.40;99.90
22235;DHT22;11286;45.596;5.284;2022-09-09T11:49:51;43.50;99.90
22235;DHT22;11286;45.596;5.284;2022-09-09T11:52:25;40.00;99.90
22235;DHT22;11286;45.596;5.284;2022-09-09T11:55:09;42.00;99.90
22235;DHT22;11286;45.596;5.284;2022-09-09T11:57:36;43.00;99.90
22235;DHT22;11286;45.596;5.284;2022-09-09T12:00:04;43.20;99.90
22235;DHT22;11286;45.596;5.284;2022-09-09T12:02:30;41.00;99.90
22235;DHT22;11286;45.596;5.284;2022-09-09T12:07:52;37.40;99.90
22235;DHT22;11286;45.596;5.284;2022-09-09T12:10:30;35.20;99.90
22235;DHT22;11286;45.596;5.284;2022-09-09T12:13:20;39.40;99.90
22235;DHT22;11286;45.596;5.284;2022-09-09T12:15:55;40.80;99.90
22235;DHT22;11286;45.596;5.284;2022-09-09T12:18:23;41.00;99.90
22235;DHT22;11286;45.596;5.284;2022-09-09T12:40:02;42.70;99.90
22235;DHT22;11286;45.596;5.284;2022-09-09T12:42:29;42.30;99.90
22235;DHT22;11286;45.596;5.284;2022-09-09T12:45:14;40.80;99.90
22235;DHT22;11286;45.596;5.284;2022-09-09T12:50:19;41.00;99.90
22235;DHT22;11286;45.596;5.284;2022-09-09T12:52:47;39.70;99.90
22235;DHT22;11286;45.596;5.284;2022-09-09T12:55:20;41.10;99.90
22235;DHT22;11286;45.596;5.284;2022-09-09T12:57:48;41.10;99.90
22235;DHT22;11286;45.596;5.284;2022-09-09T13:00:22;41.90;99.90
22235;DHT22;11286;45.596;5.284;2022-09-09T13:02:49;41.90;99.90
22235;DHT22;11286;45.596;5.284;2022-09-09T13:05:27;40.90;99.90
22235;DHT22;11286;45.596;5.284;2022-09-09T13:08:04;38.20;99.90
22235;DHT22;11286;45.596;5.284;2022-09-09T13:10:40;39.50;99.90
22235;DHT22;11286;45.596;5.284;2022-09-09T13:13:17;34.70;99.90
22235;DHT22;11286;45.596;5.284;2022-09-09T13:15:53;34.50;99.90
22235;DHT22;11286;45.596;5.284;2022-09-09T13:18:23;34.50;99.90
22235;DHT22;11286;45.596;5.284;2022-09-09T13:20:50;34.40;99.90
22235;DHT22;11286;45.596;5.284;2022-09-09T13:23:18;36.00;99.90
22235;DHT22;11286;45.596;5.284;2022-09-09T13:26:03;36.40;99.90
22235;DHT22;11286;45.596;5.284;2022-09-09T13:28:30;33.20;99.90
22235;DHT22;11286;45.596;5.284;2022-09-09T13:31:04;32.70;99.90
22235;DHT22;11286;45.596;5.284;2022-09-09T13:33:38;32.40;99.90
22235;DHT22;11286;45.596;5.284;2022-09-09T13:36:06;31.40;99.90
22235;DHT22;11286;45.596;5.284;2022-09-09T13:38:39;31.60;99.90
22235;DHT22;11286;45.596;5.284;2022-09-09T13:41:10;31.80;99.90
22235;DHT22;11286;45.596;5.284;2022-09-09T13:43:46;32.20;99.90
22235;DHT22;11286;45.596;5.284;2022-09-09T13:49:21;32.30;99.90
22235;DHT22;11286;45.596;5.284;2022-09-09T13:51:48;34.50;99.90
22235;DHT22;11286;45.596;5.284;2022-09-09T13:54:17;33.50;99.90
22235;DHT22;11286;45.596;5.284;2022-09-09T13:56:43;33.40;99.90
22235;DHT22;11286;45.596;5.284;2022-09-09T13:59:20;32.30;99.90
22235;DHT22;11286;45.596;5.284;2022-09-09T14:01:47;31.60;99.90
22235;DHT22;11286;45.596;5.284;2022-09-09T14:04:14;31.40;99.90
22235;DHT22;11286;45.596;5.284;2022-09-09T14:06:41;31.30;99.90
22235;DHT22;11286;45.596;5.284;2022-09-09T14:09:10;31.10;99.90
22235;DHT22;11286;45.596;5.284;2022-09-09T14:11:35;30.80;99.90
22235;DHT22;11286;45.596;5.284;2022-09-09T14:14:01;30.00;99.90
22235;DHT22;11286;45.596;5.284;2022-09-09T14:16:27;29.90;99.90
22235;DHT22;11286;45.596;5.284;2022-09-09T14:18:53;30.10;99.90
22235;DHT22;11286;45.596;5.284;2022-09-09T14:21:21;30.00;99.90
22235;DHT22;11286;45.596;5.284;2022-09-09T14:23:47;30.00;99.90
22235;DHT22;11286;45.596;5.284;2022-09-09T14:26:13;30.20;99.90
22235;DHT22;11286;45.596;5.284;2022-09-09T14:28:39;30.90;99.90
22235;DHT22;11286;45.596;5.284;2022-09-09T14:31:06;32.20;99.90
22235;DHT22;11286;45.596;5.284;2022-09-09T14:33:32;31.40;99.90
22235;DHT22;11286;45.596;5.284;2022-09-09T14:35:59;30.50;99.90
22235;DHT22;11286;45.596;5.284;2022-09-09T14:38:28;29.80;99.90
22235;DHT22;11286;45.596;5.284;2022-09-09T14:40:54;29.30;99.90
22235;DHT22;11286;45.596;5.284;2022-09-09T14:43:19;28.80;99.90
22235;DHT22;11286;45.596;5.284;2022-09-09T14:45:48;28.00;99.90
22235;DHT22;11286;45.596;5.284;2022-09-09T14:48:16;28.80;99.90
22235;DHT22;11286;45.596;5.284;2022-09-09T14:50:42;29.60;99.90
22235;DHT22;11286;45.596;5.284;2022-09-09T14:53:08;30.10;99.90
22235;DHT22;11286;45.596;5.284;2022-09-09T14:55:36;30.00;99.90
22235;DHT22;11286;45.596;5.284;2022-09-09T14:58:03;30.50;99.90
22235;DHT22;11286;45.596;5.284;2022-09-09T15:00:29;30.30;99.90
22235;DHT22;11286;45.596;5.284;2022-09-09T15:02:55;30.20;99.90
22235;DHT22;11286;45.596;5.284;2022-09-09T15:05:21;30.20;99.90
22235;DHT22;11286;45.596;5.284;2022-09-09T15:07:47;30.00;99.90
22235;DHT22;11286;45.596;5.284;2022-09-09T15:10:16;30.00;99.90
22235;DHT22;11286;45.596;5.284;2022-09-09T15:12:43;29.80;99.90
22235;DHT22;11286;45.596;5.284;2022-09-09T15:15:09;29.70;99.90
22235;DHT22;11286;45.596;5.284;2022-09-09T15:17:35;30.40;99.90
22235;DHT22;11286;45.596;5.284;2022-09-09T15:20:04;30.40;99.90
22235;DHT22;11286;45.596;5.284;2022-09-09T15:22:31;30.30;99.90
22235;DHT22;11286;45.596;5.284;2022-09-09T15:24:57;29.60;99.90
22235;DHT22;11286;45.596;5.284;2022-09-09T15:27:22;29.50;99.90
22235;DHT22;11286;45.596;5.284;2022-09-09T15:29:49;30.00;99.90
22235;DHT22;11286;45.596;5.284;2022-09-09T15:32:15;30.40;99.90
22235;DHT22;11286;45.596;5.284;2022-09-09T15:34:41;30.80;99.90
22235;DHT22;11286;45.596;5.284;2022-09-09T15:37:10;30.00;99.90
22235;DHT22;11286;45.596;5.284;2022-09-09T15:39:39;29.50;99.90
22235;DHT22;11286;45.596;5.284;2022-09-09T15:42:05;29.30;99.90
22235;DHT22;11286;45.596;5.284;2022-09-09T15:44:42;29.20;99.90
22235;DHT22;11286;45.596;5.284;2022-09-09T15:47:10;29.00;99.90
22235;DHT22;11286;45.596;5.284;2022-09-09T15:49:37;29.20;99.90
22235;DHT22;11286;45.596;5.284;2022-09-09T15:52:04;29.20;99.90
22235;DHT22;11286;45.596;5.284;2022-09-09T15:54:35;29.40;99.90
22235;DHT22;11286;45.596;5.284;2022-09-09T15:57:03;29.60;99.90
22235;DHT22;11286;45.596;5.284;2022-09-09T15:59:30;30.90;99.90
22235;DHT22;11286;45.596;5.284;2022-09-09T16:01:56;31.50;99.90
22235;DHT22;11286;45.596;5.284;2022-09-09T16:04:24;31.80;99.90
22235;DHT22;11286;45.596;5.284;2022-09-09T16:07:03;30.30;99.90
22235;DHT22;11286;45.596;5.284;2022-09-09T16:09:30;29.70;99.90
22235;DHT22;11286;45.596;5.284;2022-09-09T16:11:58;29.60;99.90
22235;DHT22;11286;45.596;5.284;2022-09-09T16:14:24;29.60;99.90
22235;DHT22;11286;45.596;5.284;2022-09-09T16:16:51;29.60;99.90
22235;DHT22;11286;45.596;5.284;2022-09-09T16:19:17;29.40;99.90
22235;DHT22;11286;45.596;5.284;2022-09-09T16:21:45;29.30;99.90
22235;DHT22;11286;45.596;5.284;2022-09-09T16:24:13;29.30;99.90
22235;DHT22;11286;45.596;5.284;2022-09-09T16:26:41;29.10;99.90
22235;DHT22;11286;45.596;5.284;2022-09-09T16:29:09;28.80;99.90
22235;DHT22;11286;45.596;5.284;2022-09-09T16:31:35;29.10;99.90
22235;DHT22;11286;45.596;5.284;2022-09-09T16:34:01;28.90;99.90
22235;DHT22;11286;45.596;5.284;2022-09-09T16:36:30;28.90;99.90
22235;DHT22;11286;45.596;5.284;2022-09-09T16:39:02;28.80;99.90
22235;DHT22;11286;45.596;5.284;2022-09-09T16:41:29;28.40;99.90
22235;DHT22;11286;45.596;5.284;2022-09-09T16:43:56;28.10;99.90
22235;DHT22;11286;45.596;5.284;2022-09-09T16:46:23;27.70;99.90
22235;DHT22;11286;45.596;5.284;2022-09-09T16:48:50;27.80;99.90
22235;DHT22;11286;45.596;5.284;2022-09-09T16:51:18;27.80;99.90
22235;DHT22;11286;45.596;5.284;2022-09-09T16:53:44;27.90;99.90
22235;DHT22;11286;45.596;5.284;2022-09-09T16:56:12;27.70;99.90
22235;DHT22;11286;45.596;5.284;2022-09-09T16:58:38;27.60;99.90
22235;DHT22;11286;45.596;5.284;2022-09-09T17:01:04;27.60;99.90
22235;DHT22;11286;45.596;5.284;2022-09-09T17:03:31;27.60;99.90
22235;DHT22;11286;45.596;5.284;2022-09-09T17:05:58;27.50;99.90
22235;DHT22;11286;45.596;5.284;2022-09-09T17:08:28;27.40;99.90
22235;DHT22;11286;45.596;5.284;2022-09-09T17:10:55;27.30;99.90
22235;DHT22;11286;45.596;5.284;2022-09-09T17:13:20;27.20;99.90
22235;DHT22;11286;45.596;5.284;2022-09-09T17:15:46;27.10;99.90
22235;DHT22;11286;45.596;5.284;2022-09-09T17:18:12;27.10;99.90
22235;DHT22;11286;45.596;5.284;2022-09-09T17:20:41;27.00;99.90
22235;DHT22;11286;45.596;5.284;2022-09-09T17:23:11;26.90;99.90
22235;DHT22;11286;45.596;5.284;2022-09-09T17:25:41;26.80;99.90
22235;DHT22;11286;45.596;5.284;2022-09-09T17:28:06;26.80;99.90
22235;DHT22;11286;45.596;5.284;2022-09-09T17:30:36;26.60;99.90
22235;DHT22;11286;45.596;5.284;2022-09-09T17:33:03;26.50;99.90
22235;DHT22;11286;45.596;5.284;2022-09-09T17:35:30;26.30;99.90
22235;DHT22;11286;45.596;5.284;2022-09-09T17:37:56;26.40;99.90
22235;DHT22;11286;45.596;5.284;2022-09-09T17:40:22;26.30;99.90
22235;DHT22;11286;45.596;5.284;2022-09-09T17:42:47;26.10;99.90
22235;DHT22;11286;45.596;5.284;2022-09-09T17:45:14;26.10;99.90
22235;DHT22;11286;45.596;5.284;2022-09-09T17:47:40;26.00;99.90
22235;DHT22;11286;45.596;5.284;2022-09-09T17:50:08;25.90;99.90
22235;DHT22;11286;45.596;5.284;2022-09-09T17:52:34;25.90;99.90
22235;DHT22;11286;45.596;5.284;2022-09-09T17:55:00;25.90;99.90
22235;DHT22;11286;45.596;5.284;2022-09-09T17:57:25;25.70;99.90
22235;DHT22;11286;45.596;5.284;2022-09-09T17:59:51;25.60;99.90